sensor_id;sensor_type;location;lat;lon;timestamp;temperature;humidity
59301;DHT22;45073;52.740;6.784;2023-06-14T00:01:35;19.40;57.30
59301;DHT22;45073;52.740;6.784;2023-06-14T00:04:01;19.40;57.50
59301;DHT22;45073;52.740;6.784;2023-06-14T00:06:28;19.30;57.50
59301;DHT22;45073;52.740;6.784;2023-06-14T00:08:54;19.20;57.80
59301;DHT22;45073;52.740;6.784;2023-06-14T00:11:20;19.20;57.90
59301;DHT22;45073;52.740;6.784;2023-06-14T00:13:46;19.10;57.90
59301;DHT22;45073;52.740;6.784;2023-06-14T00:16:12;19.10;58.10
59301;DHT22;45073;52.740;6.784;2023-06-14T00:18:38;19.00;58.30
59301;DHT22;45073;52.740;6.784;2023-06-14T00:21:05;19.00;58.50
59301;DHT22;45073;52.740;6.784;2023-06-14T00:23:31;19.00;58.70
59301;DHT22;45073;52.740;6.784;2023-06-14T00:25:56;18.90;58.80
59301;DHT22;45073;52.740;6.784;2023-06-14T00:28:22;18.80;59.00
59301;DHT22;45073;52.740;6.784;2023-06-14T00:30:47;18.80;59.10
59301;DHT22;45073;52.740;6.784;2023-06-14T00:33:13;18.70;59.40
59301;DHT22;45073;52.740;6.784;2023-06-14T00:35:39;18.70;59.50
59301;DHT22;45073;52.740;6.784;2023-06-14T00:38:05;18.60;59.70
59301;DHT22;45073;52.740;6.784;2023-06-14T00:40:31;18.60;59.90
59301;DHT22;45073;52.740;6.784;2023-06-14T00:42:56;18.50;60.00
59301;DHT22;45073;52.740;6.784;2023-06-14T00:45:22;18.50;60.20
59301;DHT22;45073;52.740;6.784;2023-06-14T00:47:48;18.40;60.40
59301;DHT22;45073;52.740;6.784;2023-06-14T00:50:16;18.40;60.50
59301;DHT22;45073;52.740;6.784;2023-06-14T00:52:42;18.30;60.60
59301;DHT22;45073;52.740;6.784;2023-06-14T00:55:08;18.30;60.70
59301;DHT22;45073;52.740;6.784;2023-06-14T00:57:34;18.20;60.60
59301;DHT22;45073;52.740;6.784;2023-06-14T01:00:03;18.20;61.20
59301;DHT22;45073;52.740;6.784;2023-06-14T01:02:30;18.20;61.40
59301;DHT22;45073;52.740;6.784;2023-06-14T01:04:55;18.10;61.60
59301;DHT22;45073;52.740;6.784;2023-06-14T01:08:09;18.10;61.80
59301;DHT22;45073;52.740;6.784;2023-06-14T01:11:02;18.10;61.90
59301;DHT22;45073;52.740;6.784;2023-06-14T01:13:34;18.00;62.30
59301;DHT22;45073;52.740;6.784;2023-06-14T01:16:01;17.90;62.10
59301;DHT22;45073;52.740;6.784;2023-06-14T01:18:28;17.80;62.70
59301;DHT22;45073;52.740;6.784;2023-06-14T01:20:55;17.90;62.90
59301;DHT22;45073;52.740;6.784;2023-06-14T01:23:22;17.90;63.10
59301;DHT22;45073;52.740;6.784;2023-06-14T01:25:49;17.80;63.40
59301;DHT22;45073;52.740;6.784;2023-06-14T01:28:19;17.80;63.40
59301;DHT22;45073;52.740;6.784;2023-06-14T01:30:49;17.70;63.60
59301;DHT22;45073;52.740;6.784;2023-06-14T01:33:22;17.70;63.90
59301;DHT22;45073;52.740;6.784;2023-06-14T01:35:52;17.70;63.90
59301;DHT22;45073;52.740;6.784;2023-06-14T01:38:21;17.70;64.10
59301;DHT22;45073;52.740;6.784;2023-06-14T01:40:48;17.70;65.00
59301;DHT22;45073;52.740;6.784;2023-06-14T01:43:15;17.60;64.60
59301;DHT22;45073;52.740;6.784;2023-06-14T01:45:42;17.60;64.50
59301;DHT22;45073;52.740;6.784;2023-06-14T01:48:08;17.50;64.40
59301;DHT22;45073;52.740;6.784;2023-06-14T01:50:35;17.40;64.60
59301;DHT22;45073;52.740;6.784;2023-06-14T01:53:00;17.40;65.10
59301;DHT22;45073;52.740;6.784;2023-06-14T01:55:26;17.40;65.30
59301;DHT22;45073;52.740;6.784;2023-06-14T01:57:52;17.40;65.50
59301;DHT22;45073;52.740;6.784;2023-06-14T02:00:19;17.40;65.70
59301;DHT22;45073;52.740;6.784;2023-06-14T02:02:45;17.30;65.40
59301;DHT22;45073;52.740;6.784;2023-06-14T02:05:11;17.30;66.20
59301;DHT22;45073;52.740;6.784;2023-06-14T02:07:37;17.30;66.40
59301;DHT22;45073;52.740;6.784;2023-06-14T02:10:05;17.20;66.70
59301;DHT22;45073;52.740;6.784;2023-06-14T02:12:31;17.20;66.70
59301;DHT22;45073;52.740;6.784;2023-06-14T02:14:56;17.20;67.00
59301;DHT22;45073;52.740;6.784;2023-06-14T02:17:23;17.10;67.10
59301;DHT22;45073;52.740;6.784;2023-06-14T02:19:49;17.00;67.00
59301;DHT22;45073;52.740;6.784;2023-06-14T02:22:16;16.90;67.00
59301;DHT22;45073;52.740;6.784;2023-06-14T02:24:42;17.00;67.90
59301;DHT22;45073;52.740;6.784;2023-06-14T02:27:08;17.00;68.10
59301;DHT22;45073;52.740;6.784;2023-06-14T02:29:36;17.00;68.10
59301;DHT22;45073;52.740;6.784;2023-06-14T02:32:03;16.90;67.80
59301;DHT22;45073;52.740;6.784;2023-06-14T02:34:29;16.90;68.40
59301;DHT22;45073;52.740;6.784;2023-06-14T02:36:55;17.00;68.60
59301;DHT22;45073;52.740;6.784;2023-06-14T02:39:21;17.00;68.60
59301;DHT22;45073;52.740;6.784;2023-06-14T02:41:49;16.90;68.20
59301;DHT22;45073;52.740;6.784;2023-06-14T02:44:17;16.90;68.90
59301;DHT22;45073;52.740;6.784;2023-06-14T02:46:44;16.90;68.90
59301;DHT22;45073;52.740;6.784;2023-06-14T02:49:11;16.90;69.20
59301;DHT22;45073;52.740;6.784;2023-06-14T02:51:37;16.90;69.40
59301;DHT22;45073;52.740;6.784;2023-06-14T02:54:02;16.90;69.30
59301;DHT22;45073;52.740;6.784;2023-06-14T02:56:29;16.90;69.70
59301;DHT22;45073;52.740;6.784;2023-06-14T02:58:54;16.90;69.80
59301;DHT22;45073;52.740;6.784;2023-06-14T03:01:20;16.90;69.80
59301;DHT22;45073;52.740;6.784;2023-06-14T03:03:47;16.90;69.70
59301;DHT22;45073;52.740;6.784;2023-06-14T03:06:12;16.90;70.00
59301;DHT22;45073;52.740;6.784;2023-06-14T03:08:40;16.80;69.60
59301;DHT22;45073;52.740;6.784;2023-06-14T03:11:07;16.80;71.00
59301;DHT22;45073;52.740;6.784;2023-06-14T03:13:35;16.80;70.60
59301;DHT22;45073;52.740;6.784;2023-06-14T03:16:02;16.80;70.60
59301;DHT22;45073;52.740;6.784;2023-06-14T03:18:29;16.80;70.90
59301;DHT22;45073;52.740;6.784;2023-06-14T03:20:56;16.70;70.50
59301;DHT22;45073;52.740;6.784;2023-06-14T03:23:24;16.70;70.60
59301;DHT22;45073;52.740;6.784;2023-06-14T03:25:50;16.70;71.50
59301;DHT22;45073;52.740;6.784;2023-06-14T03:28:17;16.70;71.40
59301;DHT22;45073;52.740;6.784;2023-06-14T03:30:42;16.70;71.50
59301;DHT22;45073;52.740;6.784;2023-06-14T03:33:08;16.70;71.20
59301;DHT22;45073;52.740;6.784;2023-06-14T03:35:34;16.70;71.80
59301;DHT22;45073;52.740;6.784;2023-06-14T03:37:59;16.70;72.10
59301;DHT22;45073;52.740;6.784;2023-06-14T03:40:25;16.70;72.20
59301;DHT22;45073;52.740;6.784;2023-06-14T03:42:55;16.70;72.10
59301;DHT22;45073;52.740;6.784;2023-06-14T03:45:21;16.70;72.30
59301;DHT22;45073;52.740;6.784;2023-06-14T03:47:47;16.60;71.90
59301;DHT22;45073;52.740;6.784;2023-06-14T03:50:12;16.60;72.70
59301;DHT22;45073;52.740;6.784;2023-06-14T03:52:38;16.60;72.60
59301;DHT22;45073;52.740;6.784;2023-06-14T03:55:04;16.70;72.70
59301;DHT22;45073;52.740;6.784;2023-06-14T03:57:30;16.70;72.80
59301;DHT22;45073;52.740;6.784;2023-06-14T03:59:56;16.70;72.90
59301;DHT22;45073;52.740;6.784;2023-06-14T04:02:22;16.70;72.80
59301;DHT22;45073;52.740;6.784;2023-06-14T04:04:48;16.70;73.00
59301;DHT22;45073;52.740;6.784;2023-06-14T04:07:15;16.70;73.30
59301;DHT22;45073;52.740;6.784;2023-06-14T04:09:41;16.70;73.00
59301;DHT22;45073;52.740;6.784;2023-06-14T04:12:07;16.60;73.00
59301;DHT22;45073;52.740;6.784;2023-06-14T04:14:37;16.70;73.40
59301;DHT22;45073;52.740;6.784;2023-06-14T04:17:03;16.70;73.40
59301;DHT22;45073;52.740;6.784;2023-06-14T04:19:29;16.80;73.60
59301;DHT22;45073;52.740;6.784;2023-06-14T04:21:55;16.70;73.70
59301;DHT22;45073;52.740;6.784;2023-06-14T04:24:21;16.70;73.60
59301;DHT22;45073;52.740;6.784;2023-06-14T04:26:46;16.70;73.30
59301;DHT22;45073;52.740;6.784;2023-06-14T04:29:14;16.80;74.00
59301;DHT22;45073;52.740;6.784;2023-06-14T04:31:42;16.80;74.20
59301;DHT22;45073;52.740;6.784;2023-06-14T04:34:08;16.70;73.80
59301;DHT22;45073;52.740;6.784;2023-06-14T04:36:34;16.70;74.60
59301;DHT22;45073;52.740;6.784;2023-06-14T04:39:03;16.80;74.70
59301;DHT22;45073;52.740;6.784;2023-06-14T04:41:32;16.80;74.60
59301;DHT22;45073;52.740;6.784;2023-06-14T04:43:59;16.90;74.70
59301;DHT22;45073;52.740;6.784;2023-06-14T04:46:30;16.90;74.70
59301;DHT22;45073;52.740;6.784;2023-06-14T04:48:57;16.90;74.70
59301;DHT22;45073;52.740;6.784;2023-06-14T04:51:28;16.90;74.30
59301;DHT22;45073;52.740;6.784;2023-06-14T04:53:58;16.90;74.90
59301;DHT22;45073;52.740;6.784;2023-06-14T04:56:24;17.00;75.00
59301;DHT22;45073;52.740;6.784;2023-06-14T04:58:54;17.00;75.50
59301;DHT22;45073;52.740;6.784;2023-06-14T05:01:22;17.00;74.90
59301;DHT22;45073;52.740;6.784;2023-06-14T05:03:49;17.00;75.60
59301;DHT22;45073;52.740;6.784;2023-06-14T05:06:15;17.10;75.70
59301;DHT22;45073;52.740;6.784;2023-06-14T05:08:42;17.20;75.50
59301;DHT22;45073;52.740;6.784;2023-06-14T05:11:08;17.20;74.90
59301;DHT22;45073;52.740;6.784;2023-06-14T05:13:34;17.20;75.30
59301;DHT22;45073;52.740;6.784;2023-06-14T05:16:00;17.20;76.00
59301;DHT22;45073;52.740;6.784;2023-06-14T05:18:26;17.30;76.00
59301;DHT22;45073;52.740;6.784;2023-06-14T05:20:51;17.40;75.80
59301;DHT22;45073;52.740;6.784;2023-06-14T05:23:17;17.40;75.30
59301;DHT22;45073;52.740;6.784;2023-06-14T05:25:43;17.40;75.80
59301;DHT22;45073;52.740;6.784;2023-06-14T05:28:09;17.50;75.80
59301;DHT22;45073;52.740;6.784;2023-06-14T05:30:37;17.60;75.60
59301;DHT22;45073;52.740;6.784;2023-06-14T05:33:03;17.60;75.50
59301;DHT22;45073;52.740;6.784;2023-06-14T05:35:29;17.70;75.00
59301;DHT22;45073;52.740;6.784;2023-06-14T05:37:54;17.70;75.00
59301;DHT22;45073;52.740;6.784;2023-06-14T05:40:20;17.70;75.20
59301;DHT22;45073;52.740;6.784;2023-06-14T05:42:46;17.90;75.00
59301;DHT22;45073;52.740;6.784;2023-06-14T05:45:11;17.90;74.60
59301;DHT22;45073;52.740;6.784;2023-06-14T05:47:37;18.00;74.40
59301;DHT22;45073;52.740;6.784;2023-06-14T05:50:03;18.10;74.20
59301;DHT22;45073;52.740;6.784;2023-06-14T05:52:29;18.10;74.10
59301;DHT22;45073;52.740;6.784;2023-06-14T05:54:55;18.20;73.80
59301;DHT22;45073;52.740;6.784;2023-06-14T05:57:20;18.30;73.60
59301;DHT22;45073;52.740;6.784;2023-06-14T05:59:46;18.30;73.30
59301;DHT22;45073;52.740;6.784;2023-06-14T06:02:12;18.40;72.90
59301;DHT22;45073;52.740;6.784;2023-06-14T06:04:37;18.50;73.00
59301;DHT22;45073;52.740;6.784;2023-06-14T06:07:03;18.50;73.00
59301;DHT22;45073;52.740;6.784;2023-06-14T06:09:29;18.60;72.90
59301;DHT22;45073;52.740;6.784;2023-06-14T06:11:55;18.70;72.50
59301;DHT22;45073;52.740;6.784;2023-06-14T06:14:20;18.70;72.10
59301;DHT22;45073;52.740;6.784;2023-06-14T06:16:46;18.80;71.60
59301;DHT22;45073;52.740;6.784;2023-06-14T06:19:12;18.80;71.40
59301;DHT22;45073;52.740;6.784;2023-06-14T06:21:37;19.00;71.20
59301;DHT22;45073;52.740;6.784;2023-06-14T06:24:04;19.00;71.00
59301;DHT22;45073;52.740;6.784;2023-06-14T06:26:31;19.10;70.90
59301;DHT22;45073;52.740;6.784;2023-06-14T06:28:57;19.20;70.60
59301;DHT22;45073;52.740;6.784;2023-06-14T06:31:23;19.30;70.80
59301;DHT22;45073;52.740;6.784;2023-06-14T06:33:49;19.40;70.50
59301;DHT22;45073;52.740;6.784;2023-06-14T06:36:15;19.40;70.00
59301;DHT22;45073;52.740;6.784;2023-06-14T06:38:41;19.50;69.50
59301;DHT22;45073;52.740;6.784;2023-06-14T06:41:07;19.60;68.90
59301;DHT22;45073;52.740;6.784;2023-06-14T06:43:32;19.60;68.70
59301;DHT22;45073;52.740;6.784;2023-06-14T06:45:58;19.70;68.70
59301;DHT22;45073;52.740;6.784;2023-06-14T06:48:23;19.80;68.30
59301;DHT22;45073;52.740;6.784;2023-06-14T06:50:49;19.80;67.80
59301;DHT22;45073;52.740;6.784;2023-06-14T06:53:15;19.90;67.60
59301;DHT22;45073;52.740;6.784;2023-06-14T06:55:40;19.90;67.60
59301;DHT22;45073;52.740;6.784;2023-06-14T06:58:06;20.00;67.50
59301;DHT22;45073;52.740;6.784;2023-06-14T07:00:32;20.10;67.50
59301;DHT22;45073;52.740;6.784;2023-06-14T07:02:57;20.20;67.20
59301;DHT22;45073;52.740;6.784;2023-06-14T07:05:23;20.20;67.00
59301;DHT22;45073;52.740;6.784;2023-06-14T07:07:49;20.30;66.70
59301;DHT22;45073;52.740;6.784;2023-06-14T07:10:14;20.40;66.90
59301;DHT22;45073;52.740;6.784;2023-06-14T07:12:40;20.40;66.90
59301;DHT22;45073;52.740;6.784;2023-06-14T07:15:07;20.50;66.40
59301;DHT22;45073;52.740;6.784;2023-06-14T07:17:34;20.60;66.00
59301;DHT22;45073;52.740;6.784;2023-06-14T07:20:00;20.70;65.50
59301;DHT22;45073;52.740;6.784;2023-06-14T07:22:30;20.70;64.90
59301;DHT22;45073;52.740;6.784;2023-06-14T07:24:56;20.70;64.60
59301;DHT22;45073;52.740;6.784;2023-06-14T07:27:21;20.80;65.10
59301;DHT22;45073;52.740;6.784;2023-06-14T07:29:47;20.80;65.00
59301;DHT22;45073;52.740;6.784;2023-06-14T07:32:13;20.90;65.00
59301;DHT22;45073;52.740;6.784;2023-06-14T07:34:38;21.00;64.90
59301;DHT22;45073;52.740;6.784;2023-06-14T07:37:04;21.00;64.50
59301;DHT22;45073;52.740;6.784;2023-06-14T07:39:29;21.10;64.00
59301;DHT22;45073;52.740;6.784;2023-06-14T07:41:55;21.20;63.80
59301;DHT22;45073;52.740;6.784;2023-06-14T07:44:20;21.20;63.20
59301;DHT22;45073;52.740;6.784;2023-06-14T07:46:46;21.30;63.10
59301;DHT22;45073;52.740;6.784;2023-06-14T07:49:14;21.30;62.70
59301;DHT22;45073;52.740;6.784;2023-06-14T07:51:40;21.40;61.90
59301;DHT22;45073;52.740;6.784;2023-06-14T07:54:06;21.40;61.80
59301;DHT22;45073;52.740;6.784;2023-06-14T07:56:33;21.50;61.40
59301;DHT22;45073;52.740;6.784;2023-06-14T07:58:58;21.50;61.00
59301;DHT22;45073;52.740;6.784;2023-06-14T08:01:24;21.50;61.20
59301;DHT22;45073;52.740;6.784;2023-06-14T08:03:51;21.60;60.60
59301;DHT22;45073;52.740;6.784;2023-06-14T08:06:16;21.70;60.50
59301;DHT22;45073;52.740;6.784;2023-06-14T08:08:42;21.70;60.10
59301;DHT22;45073;52.740;6.784;2023-06-14T08:11:07;21.70;59.60
59301;DHT22;45073;52.740;6.784;2023-06-14T08:13:33;21.80;60.10
59301;DHT22;45073;52.740;6.784;2023-06-14T08:15:59;21.90;60.00
59301;DHT22;45073;52.740;6.784;2023-06-14T08:18:26;21.90;59.80
59301;DHT22;45073;52.740;6.784;2023-06-14T08:20:52;22.00;60.20
59301;DHT22;45073;52.740;6.784;2023-06-14T08:23:19;22.10;59.60
59301;DHT22;45073;52.740;6.784;2023-06-14T08:25:46;22.10;59.90
59301;DHT22;45073;52.740;6.784;2023-06-14T08:28:12;22.20;59.50
59301;DHT22;45073;52.740;6.784;2023-06-14T08:30:37;22.30;59.00
59301;DHT22;45073;52.740;6.784;2023-06-14T08:33:03;22.30;59.50
59301;DHT22;45073;52.740;6.784;2023-06-14T08:35:29;22.40;58.80
59301;DHT22;45073;52.740;6.784;2023-06-14T08:37:54;22.50;59.10
59301;DHT22;45073;52.740;6.784;2023-06-14T08:40:22;22.60;58.90
59301;DHT22;45073;52.740;6.784;2023-06-14T08:42:51;22.60;58.20
59301;DHT22;45073;52.740;6.784;2023-06-14T08:45:19;22.70;58.30
59301;DHT22;45073;52.740;6.784;2023-06-14T08:47:45;22.70;58.30
59301;DHT22;45073;52.740;6.784;2023-06-14T08:50:21;22.80;58.00
59301;DHT22;45073;52.740;6.784;2023-06-14T08:52:48;22.80;57.20
59301;DHT22;45073;52.740;6.784;2023-06-14T08:55:18;22.90;56.50
59301;DHT22;45073;52.740;6.784;2023-06-14T08:57:46;22.90;55.60
59301;DHT22;45073;52.740;6.784;2023-06-14T09:00:13;22.90;55.50
59301;DHT22;45073;52.740;6.784;2023-06-14T09:02:39;23.00;55.40
59301;DHT22;45073;52.740;6.784;2023-06-14T09:05:12;23.00;55.50
59301;DHT22;45073;52.740;6.784;2023-06-14T09:07:42;23.10;55.00
59301;DHT22;45073;52.740;6.784;2023-06-14T09:10:10;23.10;54.60
59301;DHT22;45073;52.740;6.784;2023-06-14T09:12:36;23.20;54.60
59301;DHT22;45073;52.740;6.784;2023-06-14T09:15:06;23.20;54.40
59301;DHT22;45073;52.740;6.784;2023-06-14T09:17:37;23.20;54.50
59301;DHT22;45073;52.740;6.784;2023-06-14T09:20:04;23.30;55.10
59301;DHT22;45073;52.740;6.784;2023-06-14T09:22:35;23.30;55.30
59301;DHT22;45073;52.740;6.784;2023-06-14T09:25:01;23.40;54.30
59301;DHT22;45073;52.740;6.784;2023-06-14T09:27:29;23.40;54.50
59301;DHT22;45073;52.740;6.784;2023-06-14T09:29:55;23.50;54.00
59301;DHT22;45073;52.740;6.784;2023-06-14T09:32:24;23.50;53.30
59301;DHT22;45073;52.740;6.784;2023-06-14T09:34:50;23.50;53.40
59301;DHT22;45073;52.740;6.784;2023-06-14T09:37:32;23.50;52.50
59301;DHT22;45073;52.740;6.784;2023-06-14T09:39:58;23.50;51.60
59301;DHT22;45073;52.740;6.784;2023-06-14T09:42:24;23.50;52.00
59301;DHT22;45073;52.740;6.784;2023-06-14T09:44:52;23.60;52.70
59301;DHT22;45073;52.740;6.784;2023-06-14T09:47:18;23.60;51.20
59301;DHT22;45073;52.740;6.784;2023-06-14T09:49:45;23.70;51.40
59301;DHT22;45073;52.740;6.784;2023-06-14T09:52:17;23.80;51.60
59301;DHT22;45073;52.740;6.784;2023-06-14T09:54:44;23.80;51.30
59301;DHT22;45073;52.740;6.784;2023-06-14T09:57:12;23.80;51.20
59301;DHT22;45073;52.740;6.784;2023-06-14T09:59:43;23.90;51.20
59301;DHT22;45073;52.740;6.784;2023-06-14T10:02:26;23.90;51.50
59301;DHT22;45073;52.740;6.784;2023-06-14T10:05:05;24.00;51.60
59301;DHT22;45073;52.740;6.784;2023-06-14T10:07:53;24.10;50.40
59301;DHT22;45073;52.740;6.784;2023-06-14T10:10:21;24.10;49.80
59301;DHT22;45073;52.740;6.784;2023-06-14T10:12:47;24.00;49.60
59301;DHT22;45073;52.740;6.784;2023-06-14T10:15:30;24.00;49.70
59301;DHT22;45073;52.740;6.784;2023-06-14T10:18:24;24.10;49.90
59301;DHT22;45073;52.740;6.784;2023-06-14T10:20:58;24.20;50.30
59301;DHT22;45073;52.740;6.784;2023-06-14T10:23:27;24.20;50.70
59301;DHT22;45073;52.740;6.784;2023-06-14T10:25:57;24.30;50.50
59301;DHT22;45073;52.740;6.784;2023-06-14T10:28:23;24.40;49.60
59301;DHT22;45073;52.740;6.784;2023-06-14T10:31:08;24.40;49.50
59301;DHT22;45073;52.740;6.784;2023-06-14T10:39:16;24.50;49.30
59301;DHT22;45073;52.740;6.784;2023-06-14T10:41:51;24.60;49.40
59301;DHT22;45073;52.740;6.784;2023-06-14T10:49:12;24.70;49.60
59301;DHT22;45073;52.740;6.784;2023-06-14T10:51:42;24.80;49.80
59301;DHT22;45073;52.740;6.784;2023-06-14T10:54:13;24.80;49.00
59301;DHT22;45073;52.740;6.784;2023-06-14T10:56:47;24.90;48.50
59301;DHT22;45073;52.740;6.784;2023-06-14T10:59:14;24.90;49.20
59301;DHT22;45073;52.740;6.784;2023-06-14T11:04:39;25.00;48.70
59301;DHT22;45073;52.740;6.784;2023-06-14T11:12:48;25.20;48.90
59301;DHT22;45073;52.740;6.784;2023-06-14T11:15:14;25.20;48.30
59301;DHT22;45073;52.740;6.784;2023-06-14T11:17:49;25.20;48.20
59301;DHT22;45073;52.740;6.784;2023-06-14T11:20:15;25.30;48.90
59301;DHT22;45073;52.740;6.784;2023-06-14T11:22:43;25.40;48.70
59301;DHT22;45073;52.740;6.784;2023-06-14T11:25:10;25.40;48.60
59301;DHT22;45073;52.740;6.784;2023-06-14T11:27:35;25.50;48.30
59301;DHT22;45073;52.740;6.784;2023-06-14T11:30:01;25.50;48.70
59301;DHT22;45073;52.740;6.784;2023-06-14T11:32:27;25.50;48.50
59301;DHT22;45073;52.740;6.784;2023-06-14T11:34:53;25.60;48.70
59301;DHT22;45073;52.740;6.784;2023-06-14T11:37:19;25.60;49.40
59301;DHT22;45073;52.740;6.784;2023-06-14T11:39:45;25.70;49.20
59301;DHT22;45073;52.740;6.784;2023-06-14T11:42:17;25.80;48.90
59301;DHT22;45073;52.740;6.784;2023-06-14T11:44:46;25.80;48.90
59301;DHT22;45073;52.740;6.784;2023-06-14T11:47:12;25.90;49.00
59301;DHT22;45073;52.740;6.784;2023-06-14T11:49:38;25.90;49.30
59301;DHT22;45073;52.740;6.784;2023-06-14T11:52:04;25.90;49.20
59301;DHT22;45073;52.740;6.784;2023-06-14T11:54:31;26.00;49.50
59301;DHT22;45073;52.740;6.784;2023-06-14T11:56:57;26.10;50.00
59301;DHT22;45073;52.740;6.784;2023-06-14T11:59:24;26.10;49.00
59301;DHT22;45073;52.740;6.784;2023-06-14T12:01:50;26.30;49.70
59301;DHT22;45073;52.740;6.784;2023-06-14T12:04:24;26.30;49.30
59301;DHT22;45073;52.740;6.784;2023-06-14T12:06:52;26.40;49.00
59301;DHT22;45073;52.740;6.784;2023-06-14T12:09:21;26.40;49.00
59301;DHT22;45073;52.740;6.784;2023-06-14T12:11:49;26.50;48.90
59301;DHT22;45073;52.740;6.784;2023-06-14T12:14:16;26.60;48.20
59301;DHT22;45073;52.740;6.784;2023-06-14T12:16:42;26.60;48.50
59301;DHT22;45073;52.740;6.784;2023-06-14T12:19:11;26.70;49.30
59301;DHT22;45073;52.740;6.784;2023-06-14T12:21:38;26.80;48.80
59301;DHT22;45073;52.740;6.784;2023-06-14T12:24:06;26.80;48.20
59301;DHT22;45073;52.740;6.784;2023-06-14T12:26:32;26.80;48.20
59301;DHT22;45073;52.740;6.784;2023-06-14T12:28:58;26.90;48.90
59301;DHT22;45073;52.740;6.784;2023-06-14T12:31:25;26.90;49.30
59301;DHT22;45073;52.740;6.784;2023-06-14T12:33:51;26.90;48.80
59301;DHT22;45073;52.740;6.784;2023-06-14T12:36:16;27.00;48.70
59301;DHT22;45073;52.740;6.784;2023-06-14T12:38:42;27.00;48.60
59301;DHT22;45073;52.740;6.784;2023-06-14T12:41:08;27.10;48.40
59301;DHT22;45073;52.740;6.784;2023-06-14T12:43:34;27.10;48.10
59301;DHT22;45073;52.740;6.784;2023-06-14T12:46:00;27.20;48.10
59301;DHT22;45073;52.740;6.784;2023-06-14T12:48:26;27.20;49.10
59301;DHT22;45073;52.740;6.784;2023-06-14T12:50:57;27.30;48.20
59301;DHT22;45073;52.740;6.784;2023-06-14T12:53:23;27.30;48.10
59301;DHT22;45073;52.740;6.784;2023-06-14T12:55:49;27.30;47.80
59301;DHT22;45073;52.740;6.784;2023-06-14T12:58:14;27.40;48.00
59301;DHT22;45073;52.740;6.784;2023-06-14T13:00:42;27.50;47.80
59301;DHT22;45073;52.740;6.784;2023-06-14T13:03:09;27.40;47.10
59301;DHT22;45073;52.740;6.784;2023-06-14T13:05:35;27.50;46.90
59301;DHT22;45073;52.740;6.784;2023-06-14T13:08:01;27.50;47.10
59301;DHT22;45073;52.740;6.784;2023-06-14T13:10:26;27.60;47.30
59301;DHT22;45073;52.740;6.784;2023-06-14T13:12:53;27.60;47.60
59301;DHT22;45073;52.740;6.784;2023-06-14T13:15:18;27.70;47.10
59301;DHT22;45073;52.740;6.784;2023-06-14T13:17:44;27.70;47.60
59301;DHT22;45073;52.740;6.784;2023-06-14T13:20:14;27.90;48.10
59301;DHT22;45073;52.740;6.784;2023-06-14T13:22:40;28.00;47.40
59301;DHT22;45073;52.740;6.784;2023-06-14T13:25:06;28.00;47.50
59301;DHT22;45073;52.740;6.784;2023-06-14T13:27:31;28.10;47.20
59301;DHT22;45073;52.740;6.784;2023-06-14T13:29:57;28.10;47.60
59301;DHT22;45073;52.740;6.784;2023-06-14T13:32:23;28.20;47.40
59301;DHT22;45073;52.740;6.784;2023-06-14T13:34:49;28.30;46.60
59301;DHT22;45073;52.740;6.784;2023-06-14T13:37:15;28.40;47.40
59301;DHT22;45073;52.740;6.784;2023-06-14T13:39:41;28.50;46.70
59301;DHT22;45073;52.740;6.784;2023-06-14T13:42:07;28.50;46.30
59301;DHT22;45073;52.740;6.784;2023-06-14T13:44:32;28.60;46.70
59301;DHT22;45073;52.740;6.784;2023-06-14T13:46:58;28.70;46.90
59301;DHT22;45073;52.740;6.784;2023-06-14T13:49:24;28.70;46.80
59301;DHT22;45073;52.740;6.784;2023-06-14T13:51:49;28.70;46.20
59301;DHT22;45073;52.740;6.784;2023-06-14T13:54:19;28.70;45.20
59301;DHT22;45073;52.740;6.784;2023-06-14T13:56:45;28.70;45.90
59301;DHT22;45073;52.740;6.784;2023-06-14T13:59:11;28.70;46.00
59301;DHT22;45073;52.740;6.784;2023-06-14T14:01:37;28.80;45.90
59301;DHT22;45073;52.740;6.784;2023-06-14T14:04:03;28.80;45.50
59301;DHT22;45073;52.740;6.784;2023-06-14T14:06:30;28.90;45.70
59301;DHT22;45073;52.740;6.784;2023-06-14T14:08:56;28.90;45.30
59301;DHT22;45073;52.740;6.784;2023-06-14T14:11:22;28.90;45.20
59301;DHT22;45073;52.740;6.784;2023-06-14T14:13:48;28.90;45.00
59301;DHT22;45073;52.740;6.784;2023-06-14T14:16:15;28.90;45.20
59301;DHT22;45073;52.740;6.784;2023-06-14T14:18:41;29.00;44.10
59301;DHT22;45073;52.740;6.784;2023-06-14T14:21:07;28.90;44.90
59301;DHT22;45073;52.740;6.784;2023-06-14T14:23:32;29.00;44.50
59301;DHT22;45073;52.740;6.784;2023-06-14T14:25:58;29.00;45.20
59301;DHT22;45073;52.740;6.784;2023-06-14T14:28:26;29.00;45.40
59301;DHT22;45073;52.740;6.784;2023-06-14T14:30:52;29.00;45.30
59301;DHT22;45073;52.740;6.784;2023-06-14T14:33:19;29.00;44.60
59301;DHT22;45073;52.740;6.784;2023-06-14T14:35:45;29.00;44.00
59301;DHT22;45073;52.740;6.784;2023-06-14T14:38:14;29.00;44.70
59301;DHT22;45073;52.740;6.784;2023-06-14T14:40:41;29.00;45.20
59301;DHT22;45073;52.740;6.784;2023-06-14T14:43:07;29.00;45.00
59301;DHT22;45073;52.740;6.784;2023-06-14T14:45:33;29.10;45.10
59301;DHT22;45073;52.740;6.784;2023-06-14T14:48:00;29.00;45.70
59301;DHT22;45073;52.740;6.784;2023-06-14T14:50:25;29.00;45.60
59301;DHT22;45073;52.740;6.784;2023-06-14T14:52:51;29.00;45.20
59301;DHT22;45073;52.740;6.784;2023-06-14T14:55:17;29.10;45.70
59301;DHT22;45073;52.740;6.784;2023-06-14T14:57:43;29.00;44.70
59301;DHT22;45073;52.740;6.784;2023-06-14T15:00:09;29.00;44.20
59301;DHT22;45073;52.740;6.784;2023-06-14T15:02:35;29.10;44.30
59301;DHT22;45073;52.740;6.784;2023-06-14T15:05:01;29.00;44.70
59301;DHT22;45073;52.740;6.784;2023-06-14T15:07:28;29.10;45.10
59301;DHT22;45073;52.740;6.784;2023-06-14T15:09:54;29.20;45.50
59301;DHT22;45073;52.740;6.784;2023-06-14T15:12:20;29.20;44.80
59301;DHT22;45073;52.740;6.784;2023-06-14T15:14:50;29.20;45.20
59301;DHT22;45073;52.740;6.784;2023-06-14T15:17:16;29.20;44.80
59301;DHT22;45073;52.740;6.784;2023-06-14T15:19:42;29.00;44.40
59301;DHT22;45073;52.740;6.784;2023-06-14T15:22:07;28.80;44.50
59301;DHT22;45073;52.740;6.784;2023-06-14T15:24:33;28.60;44.40
59301;DHT22;45073;52.740;6.784;2023-06-14T15:26:58;28.50;44.50
59301;DHT22;45073;52.740;6.784;2023-06-14T15:29:24;28.50;44.90
59301;DHT22;45073;52.740;6.784;2023-06-14T15:31:49;28.50;45.00
59301;DHT22;45073;52.740;6.784;2023-06-14T15:34:15;28.50;45.10
59301;DHT22;45073;52.740;6.784;2023-06-14T15:36:40;28.50;45.40
59301;DHT22;45073;52.740;6.784;2023-06-14T15:39:06;28.50;45.80
59301;DHT22;45073;52.740;6.784;2023-06-14T15:41:32;28.50;45.60
59301;DHT22;45073;52.740;6.784;2023-06-14T15:43:57;28.50;45.80
59301;DHT22;45073;52.740;6.784;2023-06-14T15:46:23;28.50;45.60
59301;DHT22;45073;52.740;6.784;2023-06-14T15:48:48;28.50;45.00